sensor_id;sensor_type;location;lat;lon;timestamp;P1;durP1;ratioP1;P2;durP2;ratioP2
64060;SDS011;60147;55.036;73.242;2022-08-19T00:01:38;6.18;;;1.95;;
64060;SDS011;60147;55.036;73.242;2022-08-19T00:04:07;10.25;;;1.95;;
64060;SDS011;60147;55.036;73.242;2022-08-19T00:06:34;8.43;;;2.97;;
64060;SDS011;60147;55.036;73.242;2022-08-19T00:09:00;8.23;;;2.60;;
64060;SDS011;60147;55.036;73.242;2022-08-19T00:11:36;8.63;;;3.10;;
64060;SDS011;60147;55.036;73.242;2022-08-19T00:14:03;13.05;;;4.22;;
64060;SDS011;60147;55.036;73.242;2022-08-19T00:16:40;9.32;;;3.85;;
64060;SDS011;60147;55.036;73.242;2022-08-19T00:19:07;6.93;;;3.85;;
64060;SDS011;60147;55.036;73.242;2022-08-19T00:21:33;9.43;;;3.92;;
64060;SDS011;60147;55.036;73.242;2022-08-19T00:24:03;4.63;;;1.80;;
64060;SDS011;60147;55.036;73.242;2022-08-19T00:26:29;10.10;;;2.30;;
64060;SDS011;60147;55.036;73.242;2022-08-19T00:29:00;7.43;;;2.53;;
64060;SDS011;60147;55.036;73.242;2022-08-19T00:31:32;10.07;;;3.40;;
64060;SDS011;60147;55.036;73.242;2022-08-19T00:33:58;13.48;;;5.93;;
64060;SDS011;60147;55.036;73.242;2022-08-19T00:36:28;13.38;;;5.90;;
64060;SDS011;60147;55.036;73.242;2022-08-19T00:38:55;15.02;;;4.05;;
64060;SDS011;60147;55.036;73.242;2022-08-19T00:41:21;7.63;;;3.17;;
64060;SDS011;60147;55.036;73.242;2022-08-19T00:43:58;3.38;;;1.80;;
64060;SDS011;60147;55.036;73.242;2022-08-19T00:46:25;3.70;;;1.30;;
64060;SDS011;60147;55.036;73.242;2022-08-19T00:48:50;2.65;;;1.40;;
64060;SDS011;60147;55.036;73.242;2022-08-19T00:51:16;2.90;;;1.25;;
64060;SDS011;60147;55.036;73.242;2022-08-19T00:53:54;3.80;;;1.30;;
64060;SDS011;60147;55.036;73.242;2022-08-19T00:56:20;4.35;;;1.38;;
64060;SDS011;60147;55.036;73.242;2022-08-19T00:58:46;3.40;;;0.95;;
64060;SDS011;60147;55.036;73.242;2022-08-19T01:01:11;5.35;;;1.02;;
64060;SDS011;60147;55.036;73.242;2022-08-19T01:03:50;4.15;;;0.90;;
64060;SDS011;60147;55.036;73.242;2022-08-19T01:06:16;2.33;;;1.10;;
64060;SDS011;60147;55.036;73.242;2022-08-19T01:08:42;5.03;;;1.17;;
64060;SDS011;60147;55.036;73.242;2022-08-19T01:11:13;6.20;;;1.42;;
64060;SDS011;60147;55.036;73.242;2022-08-19T01:13:44;4.90;;;1.40;;
64060;SDS011;60147;55.036;73.242;2022-08-19T01:16:15;3.88;;;1.20;;
64060;SDS011;60147;55.036;73.242;2022-08-19T01:18:48;2.20;;;1.13;;
64060;SDS011;60147;55.036;73.242;2022-08-19T01:23:54;6.78;;;1.15;;
64060;SDS011;60147;55.036;73.242;2022-08-19T01:26:23;2.85;;;0.95;;
64060;SDS011;60147;55.036;73.242;2022-08-19T01:28:50;5.25;;;1.00;;
64060;SDS011;60147;55.036;73.242;2022-08-19T01:31:22;1.70;;;0.85;;
64060;SDS011;60147;55.036;73.242;2022-08-19T01:33:49;19.60;;;1.45;;
64060;SDS011;60147;55.036;73.242;2022-08-19T01:36:23;3.92;;;1.13;;
64060;SDS011;60147;55.036;73.242;2022-08-19T01:38:52;4.38;;;1.27;;
64060;SDS011;60147;55.036;73.242;2022-08-19T01:41:18;4.88;;;1.00;;
64060;SDS011;60147;55.036;73.242;2022-08-19T01:43:54;4.40;;;1.35;;
64060;SDS011;60147;55.036;73.242;2022-08-19T01:46:26;3.00;;;0.98;;
64060;SDS011;60147;55.036;73.242;2022-08-19T01:48:57;6.60;;;1.05;;
64060;SDS011;60147;55.036;73.242;2022-08-19T01:51:23;5.20;;;0.95;;
64060;SDS011;60147;55.036;73.242;2022-08-19T01:54:00;3.55;;;1.20;;
64060;SDS011;60147;55.036;73.242;2022-08-19T01:56:26;5.70;;;1.40;;
64060;SDS011;60147;55.036;73.242;2022-08-19T01:58:56;6.53;;;1.20;;
64060;SDS011;60147;55.036;73.242;2022-08-19T02:01:29;4.63;;;1.00;;
64060;SDS011;60147;55.036;73.242;2022-08-19T02:03:57;2.38;;;0.98;;
64060;SDS011;60147;55.036;73.242;2022-08-19T02:06:23;5.68;;;1.33;;
64060;SDS011;60147;55.036;73.242;2022-08-19T02:08:49;2.92;;;1.33;;
64060;SDS011;60147;55.036;73.242;2022-08-19T02:11:26;6.10;;;1.50;;
64060;SDS011;60147;55.036;73.242;2022-08-19T02:13:52;6.25;;;1.67;;
64060;SDS011;60147;55.036;73.242;2022-08-19T02:16:20;3.58;;;1.23;;
64060;SDS011;60147;55.036;73.242;2022-08-19T02:18:46;4.90;;;1.30;;
64060;SDS011;60147;55.036;73.242;2022-08-19T02:21:14;1.80;;;1.13;;
64060;SDS011;60147;55.036;73.242;2022-08-19T02:23:41;3.33;;;1.20;;
64060;SDS011;60147;55.036;73.242;2022-08-19T02:26:07;7.03;;;1.40;;
64060;SDS011;60147;55.036;73.242;2022-08-19T02:28:33;4.65;;;1.40;;
64060;SDS011;60147;55.036;73.242;2022-08-19T02:31:00;3.35;;;1.23;;
64060;SDS011;60147;55.036;73.242;2022-08-19T02:33:26;3.45;;;1.42;;
64060;SDS011;60147;55.036;73.242;2022-08-19T02:35:52;2.92;;;1.25;;
64060;SDS011;60147;55.036;73.242;2022-08-19T02:38:23;4.10;;;1.30;;
64060;SDS011;60147;55.036;73.242;2022-08-19T02:41:02;1.58;;;0.93;;
64060;SDS011;60147;55.036;73.242;2022-08-19T02:43:30;10.35;;;1.80;;
64060;SDS011;60147;55.036;73.242;2022-08-19T02:46:01;5.68;;;2.05;;
64060;SDS011;60147;55.036;73.242;2022-08-19T02:48:27;8.82;;;2.10;;
64060;SDS011;60147;55.036;73.242;2022-08-19T02:51:01;19.13;;;3.45;;
64060;SDS011;60147;55.036;73.242;2022-08-19T02:53:36;9.52;;;2.70;;
64060;SDS011;60147;55.036;73.242;2022-08-19T02:56:05;15.25;;;3.15;;
64060;SDS011;60147;55.036;73.242;2022-08-19T02:58:31;21.88;;;3.78;;
64060;SDS011;60147;55.036;73.242;2022-08-19T03:01:07;9.25;;;2.67;;
64060;SDS011;60147;55.036;73.242;2022-08-19T03:03:33;8.00;;;2.10;;
64060;SDS011;60147;55.036;73.242;2022-08-19T03:06:09;6.97;;;1.95;;
64060;SDS011;60147;55.036;73.242;2022-08-19T03:08:42;10.35;;;2.30;;
64060;SDS011;60147;55.036;73.242;2022-08-19T03:11:20;9.63;;;3.28;;
64060;SDS011;60147;55.036;73.242;2022-08-19T03:13:46;4.55;;;2.58;;
64060;SDS011;60147;55.036;73.242;2022-08-19T03:16:14;5.53;;;2.17;;
64060;SDS011;60147;55.036;73.242;2022-08-19T03:18:41;5.25;;;2.30;;
64060;SDS011;60147;55.036;73.242;2022-08-19T03:21:17;9.57;;;1.98;;
64060;SDS011;60147;55.036;73.242;2022-08-19T03:23:44;5.47;;;2.40;;
64060;SDS011;60147;55.036;73.242;2022-08-19T03:26:10;7.13;;;2.60;;
64060;SDS011;60147;55.036;73.242;2022-08-19T03:28:36;6.80;;;2.55;;
64060;SDS011;60147;55.036;73.242;2022-08-19T03:31:04;4.55;;;2.33;;
64060;SDS011;60147;55.036;73.242;2022-08-19T03:33:31;3.78;;;1.90;;
64060;SDS011;60147;55.036;73.242;2022-08-19T03:38:27;3.80;;;2.00;;
64060;SDS011;60147;55.036;73.242;2022-08-19T03:40:53;3.92;;;1.42;;
64060;SDS011;60147;55.036;73.242;2022-08-19T03:43:19;5.57;;;2.47;;
64060;SDS011;60147;55.036;73.242;2022-08-19T03:45:45;5.32;;;2.33;;
64060;SDS011;60147;55.036;73.242;2022-08-19T03:48:11;9.43;;;2.50;;
64060;SDS011;60147;55.036;73.242;2022-08-19T03:50:46;12.30;;;2.80;;
64060;SDS011;60147;55.036;73.242;2022-08-19T03:53:12;7.25;;;2.05;;
64060;SDS011;60147;55.036;73.242;2022-08-19T03:55:48;11.90;;;2.55;;
64060;SDS011;60147;55.036;73.242;2022-08-19T03:58:13;6.88;;;2.38;;
64060;SDS011;60147;55.036;73.242;2022-08-19T04:00:41;10.25;;;2.45;;
64060;SDS011;60147;55.036;73.242;2022-08-19T04:03:07;6.28;;;2.40;;
64060;SDS011;60147;55.036;73.242;2022-08-19T04:05:38;9.52;;;2.20;;
64060;SDS011;60147;55.036;73.242;2022-08-19T04:08:08;8.25;;;2.00;;
64060;SDS011;60147;55.036;73.242;2022-08-19T04:10:37;4.28;;;2.00;;
64060;SDS011;60147;55.036;73.242;2022-08-19T04:13:04;5.05;;;1.80;;
64060;SDS011;60147;55.036;73.242;2022-08-19T04:15:42;13.00;;;3.35;;
64060;SDS011;60147;55.036;73.242;2022-08-19T04:18:18;4.57;;;2.75;;
64060;SDS011;60147;55.036;73.242;2022-08-19T04:20:44;7.78;;;2.67;;
64060;SDS011;60147;55.036;73.242;2022-08-19T04:23:11;4.93;;;2.38;;
64060;SDS011;60147;55.036;73.242;2022-08-19T04:25:43;10.40;;;1.95;;
64060;SDS011;60147;55.036;73.242;2022-08-19T04:28:10;4.20;;;1.63;;
64060;SDS011;60147;55.036;73.242;2022-08-19T04:30:37;7.13;;;2.05;;
64060;SDS011;60147;55.036;73.242;2022-08-19T04:33:03;10.02;;;1.73;;
64060;SDS011;60147;55.036;73.242;2022-08-19T04:35:34;7.00;;;2.05;;
64060;SDS011;60147;55.036;73.242;2022-08-19T04:38:00;10.10;;;2.60;;
64060;SDS011;60147;55.036;73.242;2022-08-19T04:40:40;7.57;;;2.88;;
64060;SDS011;60147;55.036;73.242;2022-08-19T04:43:36;17.00;;;4.55;;
64060;SDS011;60147;55.036;73.242;2022-08-19T04:46:08;11.98;;;4.47;;
64060;SDS011;60147;55.036;73.242;2022-08-19T04:48:36;6.05;;;2.85;;
64060;SDS011;60147;55.036;73.242;2022-08-19T04:51:05;7.50;;;3.03;;
64060;SDS011;60147;55.036;73.242;2022-08-19T04:53:32;5.20;;;2.30;;
64060;SDS011;60147;55.036;73.242;2022-08-19T04:56:04;3.85;;;2.00;;
64060;SDS011;60147;55.036;73.242;2022-08-19T04:58:30;8.05;;;2.28;;
64060;SDS011;60147;55.036;73.242;2022-08-19T05:00:56;10.57;;;4.85;;
64060;SDS011;60147;55.036;73.242;2022-08-19T05:03:25;12.65;;;4.80;;
64060;SDS011;60147;55.036;73.242;2022-08-19T05:05:51;8.18;;;3.33;;
64060;SDS011;60147;55.036;73.242;2022-08-19T05:08:18;8.02;;;2.90;;
64060;SDS011;60147;55.036;73.242;2022-08-19T05:10:55;6.03;;;2.33;;
64060;SDS011;60147;55.036;73.242;2022-08-19T05:13:33;6.63;;;2.35;;
64060;SDS011;60147;55.036;73.242;2022-08-19T05:15:59;7.63;;;2.05;;
64060;SDS011;60147;55.036;73.242;2022-08-19T05:18:29;4.35;;;1.50;;
64060;SDS011;60147;55.036;73.242;2022-08-19T05:21:14;12.75;;;3.35;;
64060;SDS011;60147;55.036;73.242;2022-08-19T05:24:09;6.65;;;2.55;;
64060;SDS011;60147;55.036;73.242;2022-08-19T05:26:35;4.78;;;2.00;;
64060;SDS011;60147;55.036;73.242;2022-08-19T05:29:05;6.77;;;2.50;;
64060;SDS011;60147;55.036;73.242;2022-08-19T05:31:43;10.10;;;2.08;;
64060;SDS011;60147;55.036;73.242;2022-08-19T05:34:12;6.45;;;2.00;;
64060;SDS011;60147;55.036;73.242;2022-08-19T05:36:39;8.77;;;1.90;;
64060;SDS011;60147;55.036;73.242;2022-08-19T05:39:19;3.83;;;1.60;;
64060;SDS011;60147;55.036;73.242;2022-08-19T05:41:49;3.25;;;1.40;;
64060;SDS011;60147;55.036;73.242;2022-08-19T05:44:21;10.45;;;3.55;;
64060;SDS011;60147;55.036;73.242;2022-08-19T05:46:47;14.57;;;6.53;;
64060;SDS011;60147;55.036;73.242;2022-08-19T05:49:14;9.10;;;5.00;;
64060;SDS011;60147;55.036;73.242;2022-08-19T05:51:46;6.97;;;2.78;;
64060;SDS011;60147;55.036;73.242;2022-08-19T05:54:12;12.60;;;2.80;;
64060;SDS011;60147;55.036;73.242;2022-08-19T05:56:46;6.85;;;3.03;;
64060;SDS011;60147;55.036;73.242;2022-08-19T05:59:20;9.65;;;3.95;;
64060;SDS011;60147;55.036;73.242;2022-08-19T06:01:47;8.20;;;3.45;;
64060;SDS011;60147;55.036;73.242;2022-08-19T06:04:16;10.90;;;4.13;;
64060;SDS011;60147;55.036;73.242;2022-08-19T06:06:44;3.22;;;2.00;;
64060;SDS011;60147;55.036;73.242;2022-08-19T06:09:15;5.85;;;1.60;;
64060;SDS011;60147;55.036;73.242;2022-08-19T06:11:52;8.38;;;2.58;;
64060;SDS011;60147;55.036;73.242;2022-08-19T06:14:24;9.77;;;3.90;;
64060;SDS011;60147;55.036;73.242;2022-08-19T06:16:51;7.13;;;2.65;;
64060;SDS011;60147;55.036;73.242;2022-08-19T06:19:18;9.00;;;2.30;;
64060;SDS011;60147;55.036;73.242;2022-08-19T06:21:55;4.78;;;2.00;;
64060;SDS011;60147;55.036;73.242;2022-08-19T06:24:22;5.00;;;1.70;;
64060;SDS011;60147;55.036;73.242;2022-08-19T06:26:50;6.43;;;2.30;;
64060;SDS011;60147;55.036;73.242;2022-08-19T06:29:19;6.18;;;2.20;;
64060;SDS011;60147;55.036;73.242;2022-08-19T06:31:56;4.53;;;2.40;;
64060;SDS011;60147;55.036;73.242;2022-08-19T06:34:30;6.50;;;1.98;;
64060;SDS011;60147;55.036;73.242;2022-08-19T06:36:57;6.57;;;2.72;;
64060;SDS011;60147;55.036;73.242;2022-08-19T06:39:28;7.22;;;2.90;;
64060;SDS011;60147;55.036;73.242;2022-08-19T06:41:55;6.85;;;3.00;;
64060;SDS011;60147;55.036;73.242;2022-08-19T06:44:22;4.13;;;1.92;;
64060;SDS011;60147;55.036;73.242;2022-08-19T06:46:48;6.35;;;2.10;;
64060;SDS011;60147;55.036;73.242;2022-08-19T06:51:50;7.70;;;2.00;;
64060;SDS011;60147;55.036;73.242;2022-08-19T06:54:16;3.20;;;1.90;;
64060;SDS011;60147;55.036;73.242;2022-08-19T06:56:43;7.80;;;3.03;;
64060;SDS011;60147;55.036;73.242;2022-08-19T06:59:17;10.48;;;3.22;;
64060;SDS011;60147;55.036;73.242;2022-08-19T07:01:50;7.63;;;2.60;;
64060;SDS011;60147;55.036;73.242;2022-08-19T07:04:21;11.85;;;2.38;;
64060;SDS011;60147;55.036;73.242;2022-08-19T07:06:47;10.60;;;3.78;;
64060;SDS011;60147;55.036;73.242;2022-08-19T07:09:14;8.98;;;2.35;;
64060;SDS011;60147;55.036;73.242;2022-08-19T07:11:46;6.65;;;2.30;;
64060;SDS011;60147;55.036;73.242;2022-08-19T07:14:13;7.50;;;2.00;;
64060;SDS011;60147;55.036;73.242;2022-08-19T07:16:39;6.10;;;2.00;;
64060;SDS011;60147;55.036;73.242;2022-08-19T07:19:05;7.63;;;3.85;;
64060;SDS011;60147;55.036;73.242;2022-08-19T07:21:32;20.23;;;14.48;;
64060;SDS011;60147;55.036;73.242;2022-08-19T07:23:59;18.67;;;11.77;;
64060;SDS011;60147;55.036;73.242;2022-08-19T07:26:29;8.52;;;5.53;;
64060;SDS011;60147;55.036;73.242;2022-08-19T07:29:00;7.78;;;5.22;;
64060;SDS011;60147;55.036;73.242;2022-08-19T07:31:27;12.23;;;3.60;;
64060;SDS011;60147;55.036;73.242;2022-08-19T07:33:58;12.93;;;7.20;;
64060;SDS011;60147;55.036;73.242;2022-08-19T07:36:26;12.48;;;5.25;;
64060;SDS011;60147;55.036;73.242;2022-08-19T07:38:58;9.68;;;4.07;;
64060;SDS011;60147;55.036;73.242;2022-08-19T07:41:35;8.88;;;3.30;;
64060;SDS011;60147;55.036;73.242;2022-08-19T07:44:02;5.78;;;2.95;;
64060;SDS011;60147;55.036;73.242;2022-08-19T07:46:35;10.18;;;2.58;;
64060;SDS011;60147;55.036;73.242;2022-08-19T07:49:08;11.18;;;3.00;;
64060;SDS011;60147;55.036;73.242;2022-08-19T07:51:38;8.00;;;3.03;;
64060;SDS011;60147;55.036;73.242;2022-08-19T07:54:04;12.65;;;3.00;;
64060;SDS011;60147;55.036;73.242;2022-08-19T07:56:30;8.15;;;2.63;;
64060;SDS011;60147;55.036;73.242;2022-08-19T07:58:56;4.50;;;2.45;;
64060;SDS011;60147;55.036;73.242;2022-08-19T08:01:24;10.15;;;2.80;;
64060;SDS011;60147;55.036;73.242;2022-08-19T08:03:52;9.55;;;3.13;;
64060;SDS011;60147;55.036;73.242;2022-08-19T08:06:36;9.23;;;2.80;;
64060;SDS011;60147;55.036;73.242;2022-08-19T08:09:27;13.63;;;2.80;;
64060;SDS011;60147;55.036;73.242;2022-08-19T08:11:54;17.90;;;4.05;;
64060;SDS011;60147;55.036;73.242;2022-08-19T08:14:41;9.85;;;3.17;;
64060;SDS011;60147;55.036;73.242;2022-08-19T08:17:09;9.00;;;3.55;;
64060;SDS011;60147;55.036;73.242;2022-08-19T08:19:35;8.00;;;2.35;;
64060;SDS011;60147;55.036;73.242;2022-08-19T08:22:02;6.82;;;2.42;;
64060;SDS011;60147;55.036;73.242;2022-08-19T08:24:30;7.38;;;2.58;;
64060;SDS011;60147;55.036;73.242;2022-08-19T08:29:27;11.48;;;4.35;;
64060;SDS011;60147;55.036;73.242;2022-08-19T08:32:03;7.82;;;3.90;;
64060;SDS011;60147;55.036;73.242;2022-08-19T08:34:47;8.55;;;5.38;;
64060;SDS011;60147;55.036;73.242;2022-08-19T08:37:13;7.57;;;3.90;;
64060;SDS011;60147;55.036;73.242;2022-08-19T08:39:39;15.55;;;3.58;;
64060;SDS011;60147;55.036;73.242;2022-08-19T08:42:28;11.35;;;2.85;;
64060;SDS011;60147;55.036;73.242;2022-08-19T08:45:12;11.30;;;4.55;;
64060;SDS011;60147;55.036;73.242;2022-08-19T08:47:40;16.05;;;4.20;;
64060;SDS011;60147;55.036;73.242;2022-08-19T08:50:29;9.15;;;3.00;;
64060;SDS011;60147;55.036;73.242;2022-08-19T08:52:53;7.53;;;2.90;;
64060;SDS011;60147;55.036;73.242;2022-08-19T08:55:25;6.05;;;2.70;;
64060;SDS011;60147;55.036;73.242;2022-08-19T09:00:27;9.23;;;3.47;;
64060;SDS011;60147;55.036;73.242;2022-08-19T09:02:55;10.73;;;2.72;;
64060;SDS011;60147;55.036;73.242;2022-08-19T09:05:21;9.95;;;2.70;;
64060;SDS011;60147;55.036;73.242;2022-08-19T09:08:07;10.02;;;2.05;;
64060;SDS011;60147;55.036;73.242;2022-08-19T09:10:38;9.00;;;2.20;;
64060;SDS011;60147;55.036;73.242;2022-08-19T09:15:45;4.78;;;2.10;;
64060;SDS011;60147;55.036;73.242;2022-08-19T09:18:13;7.88;;;2.08;;
64060;SDS011;60147;55.036;73.242;2022-08-19T09:20:39;7.00;;;2.40;;
64060;SDS011;60147;55.036;73.242;2022-08-19T09:23:05;7.75;;;3.08;;
64060;SDS011;60147;55.036;73.242;2022-08-19T09:25:31;7.38;;;3.10;;
64060;SDS011;60147;55.036;73.242;2022-08-19T09:28:00;6.72;;;3.10;;
64060;SDS011;60147;55.036;73.242;2022-08-19T09:30:30;9.77;;;3.30;;
64060;SDS011;60147;55.036;73.242;2022-08-19T09:32:56;5.72;;;2.92;;
64060;SDS011;60147;55.036;73.242;2022-08-19T09:35:24;8.10;;;3.20;;
64060;SDS011;60147;55.036;73.242;2022-08-19T09:37:51;16.70;;;7.70;;
64060;SDS011;60147;55.036;73.242;2022-08-19T09:40:17;147.05;;;50.13;;
64060;SDS011;60147;55.036;73.242;2022-08-19T09:42:43;26.15;;;9.40;;
64060;SDS011;60147;55.036;73.242;2022-08-19T09:45:22;24.52;;;13.43;;
64060;SDS011;60147;55.036;73.242;2022-08-19T09:47:49;21.15;;;9.10;;
64060;SDS011;60147;55.036;73.242;2022-08-19T09:50:16;12.45;;;6.30;;
64060;SDS011;60147;55.036;73.242;2022-08-19T09:52:43;11.55;;;5.28;;
64060;SDS011;60147;55.036;73.242;2022-08-19T09:55:10;9.57;;;4.68;;
64060;SDS011;60147;55.036;73.242;2022-08-19T09:57:36;8.63;;;4.45;;
64060;SDS011;60147;55.036;73.242;2022-08-19T10:00:04;12.10;;;4.07;;
64060;SDS011;60147;55.036;73.242;2022-08-19T10:02:33;11.63;;;5.28;;
64060;SDS011;60147;55.036;73.242;2022-08-19T10:04:59;6.95;;;3.90;;
64060;SDS011;60147;55.036;73.242;2022-08-19T10:07:43;7.13;;;4.03;;
64060;SDS011;60147;55.036;73.242;2022-08-19T10:10:09;21.63;;;12.05;;
64060;SDS011;60147;55.036;73.242;2022-08-19T10:12:36;37.42;;;15.93;;
64060;SDS011;60147;55.036;73.242;2022-08-19T10:15:03;54.38;;;20.63;;
64060;SDS011;60147;55.036;73.242;2022-08-19T10:17:29;70.45;;;25.58;;
64060;SDS011;60147;55.036;73.242;2022-08-19T10:19:56;99.40;;;26.77;;
64060;SDS011;60147;55.036;73.242;2022-08-19T10:22:27;160.85;;;54.28;;
64060;SDS011;60147;55.036;73.242;2022-08-19T10:24:53;108.22;;;47.13;;
64060;SDS011;60147;55.036;73.242;2022-08-19T10:27:29;42.85;;;25.00;;
64060;SDS011;60147;55.036;73.242;2022-08-19T10:29:56;42.47;;;28.33;;
64060;SDS011;60147;55.036;73.242;2022-08-19T10:32:32;24.95;;;14.80;;
64060;SDS011;60147;55.036;73.242;2022-08-19T10:34:59;15.57;;;13.18;;
64060;SDS011;60147;55.036;73.242;2022-08-19T10:37:26;9.98;;;6.82;;
64060;SDS011;60147;55.036;73.242;2022-08-19T10:39:52;11.45;;;8.68;;
64060;SDS011;60147;55.036;73.242;2022-08-19T10:42:23;10.43;;;6.20;;
64060;SDS011;60147;55.036;73.242;2022-08-19T10:44:49;11.85;;;6.53;;
64060;SDS011;60147;55.036;73.242;2022-08-19T10:47:15;8.40;;;4.93;;
64060;SDS011;60147;55.036;73.242;2022-08-19T10:49:41;8.82;;;5.60;;
64060;SDS011;60147;55.036;73.242;2022-08-19T10:52:27;15.73;;;7.10;;
64060;SDS011;60147;55.036;73.242;2022-08-19T10:55:05;18.77;;;9.30;;
64060;SDS011;60147;55.036;73.242;2022-08-19T10:57:49;12.10;;;6.88;;
64060;SDS011;60147;55.036;73.242;2022-08-19T11:00:16;13.05;;;6.28;;
64060;SDS011;60147;55.036;73.242;2022-08-19T11:02:42;10.90;;;5.68;;
64060;SDS011;60147;55.036;73.242;2022-08-19T11:05:08;11.90;;;7.05;;
64060;SDS011;60147;55.036;73.242;2022-08-19T11:07:40;16.17;;;12.80;;
64060;SDS011;60147;55.036;73.242;2022-08-19T11:10:07;24.10;;;18.27;;
64060;SDS011;60147;55.036;73.242;2022-08-19T11:12:35;21.45;;;16.58;;
64060;SDS011;60147;55.036;73.242;2022-08-19T11:15:20;13.82;;;10.10;;
64060;SDS011;60147;55.036;73.242;2022-08-19T11:17:46;8.70;;;5.88;;
64060;SDS011;60147;55.036;73.242;2022-08-19T11:20:13;22.25;;;15.85;;
64060;SDS011;60147;55.036;73.242;2022-08-19T11:22:39;10.52;;;6.72;;
64060;SDS011;60147;55.036;73.242;2022-08-19T11:25:06;8.48;;;6.10;;
64060;SDS011;60147;55.036;73.242;2022-08-19T11:27:32;7.32;;;5.03;;
64060;SDS011;60147;55.036;73.242;2022-08-19T11:29:59;7.93;;;5.25;;
64060;SDS011;60147;55.036;73.242;2022-08-19T11:32:25;6.75;;;3.90;;
64060;SDS011;60147;55.036;73.242;2022-08-19T11:34:52;6.18;;;4.47;;
64060;SDS011;60147;55.036;73.242;2022-08-19T11:37:17;5.70;;;3.55;;
64060;SDS011;60147;55.036;73.242;2022-08-19T11:39:43;9.60;;;3.95;;
64060;SDS011;60147;55.036;73.242;2022-08-19T11:42:09;7.18;;;3.88;;
64060;SDS011;60147;55.036;73.242;2022-08-19T11:45:04;15.00;;;13.23;;
64060;SDS011;60147;55.036;73.242;2022-08-19T11:47:31;20.80;;;8.82;;
64060;SDS011;60147;55.036;73.242;2022-08-19T11:49:56;16.45;;;8.00;;
64060;SDS011;60147;55.036;73.242;2022-08-19T11:52:22;8.18;;;5.03;;
64060;SDS011;60147;55.036;73.242;2022-08-19T11:54:48;7.45;;;4.55;;
64060;SDS011;60147;55.036;73.242;2022-08-19T11:57:14;13.95;;;5.05;;
64060;SDS011;60147;55.036;73.242;2022-08-19T11:59:47;5.40;;;3.40;;
64060;SDS011;60147;55.036;73.242;2022-08-19T12:04:40;37.40;;;17.90;;
64060;SDS011;60147;55.036;73.242;2022-08-19T12:07:06;36.38;;;18.27;;
64060;SDS011;60147;55.036;73.242;2022-08-19T12:09:32;89.88;;;40.60;;
64060;SDS011;60147;55.036;73.242;2022-08-19T12:12:00;37.30;;;16.92;;
64060;SDS011;60147;55.036;73.242;2022-08-19T12:14:27;15.48;;;9.88;;
64060;SDS011;60147;55.036;73.242;2022-08-19T12:16:55;11.90;;;6.97;;
64060;SDS011;60147;55.036;73.242;2022-08-19T12:19:21;7.68;;;4.25;;
64060;SDS011;60147;55.036;73.242;2022-08-19T12:21:47;9.95;;;4.68;;
64060;SDS011;60147;55.036;73.242;2022-08-19T12:24:13;7.82;;;3.55;;
64060;SDS011;60147;55.036;73.242;2022-08-19T12:26:39;27.55;;;12.82;;
64060;SDS011;60147;55.036;73.242;2022-08-19T12:29:05;99.60;;;50.42;;
64060;SDS011;60147;55.036;73.242;2022-08-19T12:31:31;27.67;;;19.17;;
64060;SDS011;60147;55.036;73.242;2022-08-19T12:34:01;14.25;;;10.05;;
64060;SDS011;60147;55.036;73.242;2022-08-19T12:36:33;11.95;;;7.28;;
64060;SDS011;60147;55.036;73.242;2022-08-19T12:38:59;17.38;;;12.48;;
64060;SDS011;60147;55.036;73.242;2022-08-19T12:41:37;26.17;;;20.10;;
64060;SDS011;60147;55.036;73.242;2022-08-19T12:44:04;20.33;;;16.17;;
64060;SDS011;60147;55.036;73.242;2022-08-19T12:46:31;17.77;;;15.88;;
64060;SDS011;60147;55.036;73.242;2022-08-19T12:48:57;13.50;;;10.85;;
64060;SDS011;60147;55.036;73.242;2022-08-19T12:51:22;7.60;;;5.63;;
64060;SDS011;60147;55.036;73.242;2022-08-19T12:53:48;8.98;;;5.75;;
64060;SDS011;60147;55.036;73.242;2022-08-19T12:56:15;7.90;;;5.55;;
64060;SDS011;60147;55.036;73.242;2022-08-19T12:58:41;9.02;;;6.80;;
64060;SDS011;60147;55.036;73.242;2022-08-19T13:01:09;8.00;;;5.53;;
64060;SDS011;60147;55.036;73.242;2022-08-19T13:03:35;7.72;;;6.20;;
64060;SDS011;60147;55.036;73.242;2022-08-19T13:06:02;7.13;;;4.72;;
64060;SDS011;60147;55.036;73.242;2022-08-19T13:08:28;6.50;;;4.90;;
64060;SDS011;60147;55.036;73.242;2022-08-19T13:11:10;6.95;;;4.90;;
64060;SDS011;60147;55.036;73.242;2022-08-19T13:13:38;7.55;;;4.30;;
64060;SDS011;60147;55.036;73.242;2022-08-19T13:16:16;6.82;;;4.10;;
64060;SDS011;60147;55.036;73.242;2022-08-19T13:18:44;6.28;;;4.18;;
64060;SDS011;60147;55.036;73.242;2022-08-19T13:21:10;6.20;;;4.35;;
64060;SDS011;60147;55.036;73.242;2022-08-19T13:23:39;5.82;;;4.25;;
64060;SDS011;60147;55.036;73.242;2022-08-19T13:26:06;6.63;;;3.88;;
64060;SDS011;60147;55.036;73.242;2022-08-19T13:28:35;6.88;;;4.03;;
64060;SDS011;60147;55.036;73.242;2022-08-19T13:31:20;9.38;;;4.22;;
64060;SDS011;60147;55.036;73.242;2022-08-19T13:34:15;4.40;;;3.33;;
64060;SDS011;60147;55.036;73.242;2022-08-19T13:36:41;5.45;;;3.33;;
64060;SDS011;60147;55.036;73.242;2022-08-19T13:39:10;5.30;;;3.50;;
64060;SDS011;60147;55.036;73.242;2022-08-19T13:41:43;6.93;;;4.40;;
64060;SDS011;60147;55.036;73.242;2022-08-19T13:46:36;9.98;;;4.90;;
64060;SDS011;60147;55.036;73.242;2022-08-19T13:49:02;11.02;;;5.03;;
64060;SDS011;60147;55.036;73.242;2022-08-19T13:51:34;8.80;;;4.88;;
64060;SDS011;60147;55.036;73.242;2022-08-19T13:54:06;9.23;;;5.45;;
64060;SDS011;60147;55.036;73.242;2022-08-19T13:56:42;8.43;;;5.38;;
64060;SDS011;60147;55.036;73.242;2022-08-19T13:59:08;8.73;;;5.32;;
64060;SDS011;60147;55.036;73.242;2022-08-19T14:01:35;8.75;;;5.35;;
64060;SDS011;60147;55.036;73.242;2022-08-19T14:04:02;14.60;;;7.35;;
64060;SDS011;60147;55.036;73.242;2022-08-19T14:06:28;10.05;;;4.05;;
64060;SDS011;60147;55.036;73.242;2022-08-19T14:08:53;12.10;;;6.00;;
64060;SDS011;60147;55.036;73.242;2022-08-19T14:11:19;6.90;;;4.32;;
64060;SDS011;60147;55.036;73.242;2022-08-19T14:13:45;6.57;;;3.85;;
64060;SDS011;60147;55.036;73.242;2022-08-19T14:16:13;6.45;;;4.28;;
64060;SDS011;60147;55.036;73.242;2022-08-19T14:18:39;7.80;;;4.55;;
64060;SDS011;60147;55.036;73.242;2022-08-19T14:21:05;8.07;;;4.90;;
64060;SDS011;60147;55.036;73.242;2022-08-19T14:23:32;8.82;;;5.53;;
64060;SDS011;60147;55.036;73.242;2022-08-19T14:26:08;7.40;;;5.00;;
64060;SDS011;60147;55.036;73.242;2022-08-19T14:28:35;9.07;;;5.72;;
64060;SDS011;60147;55.036;73.242;2022-08-19T14:31:01;10.05;;;5.32;;
64060;SDS011;60147;55.036;73.242;2022-08-19T14:33:32;9.40;;;5.45;;
64060;SDS011;60147;55.036;73.242;2022-08-19T14:36:08;12.48;;;7.00;;
64060;SDS011;60147;55.036;73.242;2022-08-19T14:38:34;11.98;;;5.80;;
64060;SDS011;60147;55.036;73.242;2022-08-19T14:43:33;10.90;;;5.15;;
64060;SDS011;60147;55.036;73.242;2022-08-19T14:45:59;9.70;;;4.75;;
64060;SDS011;60147;55.036;73.242;2022-08-19T14:48:25;11.07;;;4.88;;
64060;SDS011;60147;55.036;73.242;2022-08-19T14:50:52;26.48;;;6.70;;
64060;SDS011;60147;55.036;73.242;2022-08-19T14:53:17;21.38;;;8.80;;
64060;SDS011;60147;55.036;73.242;2022-08-19T14:55:47;24.80;;;6.85;;
64060;SDS011;60147;55.036;73.242;2022-08-19T14:58:23;24.83;;;8.02;;
64060;SDS011;60147;55.036;73.242;2022-08-19T15:00:59;22.65;;;7.35;;
64060;SDS011;60147;55.036;73.242;2022-08-19T15:03:36;17.90;;;6.45;;
64060;SDS011;60147;55.036;73.242;2022-08-19T15:06:03;18.60;;;7.38;;